createdAt,value
2022-10-04T00:00:00.085Z,5.10
2022-10-04T00:05:05.550Z,6.13
2022-10-04T00:10:17.108Z,7.53
2022-10-04T00:15:29.087Z,5.10
2022-10-04T00:20:51.536Z,4.72
2022-10-04T00:25:53.832Z,7.83
2022-10-04T00:31:09.657Z,5.32
2022-10-04T00:36:46.462Z,4.67
2022-10-04T00:41:47.700Z,5.35
2022-10-04T00:46:49.740Z,5.13
2022-10-04T00:51:56.102Z,5.40
2022-10-04T00:57:03.385Z,4.47
2022-10-04T01:02:07.527Z,4.73
2022-10-04T01:07:09.751Z,4.15
2022-10-04T01:12:16.857Z,4.70
2022-10-04T01:17:18.183Z,4.83
2022-10-04T01:22:35.187Z,4.55
2022-10-04T01:27:40.382Z,4.50
2022-10-04T01:32:41.994Z,4.10
2022-10-04T01:37:43.803Z,4.50
2022-10-04T01:42:48.761Z,4.10
2022-10-04T01:48:10.278Z,4.32
2022-10-04T01:53:27.696Z,4.20
2022-10-04T01:58:32.013Z,4.30
2022-10-04T02:03:39.580Z,4.20
2022-10-04T02:08:45.819Z,4.37
2022-10-04T02:13:48.473Z,3.95
2022-10-04T02:18:50.827Z,4.13
2022-10-04T02:23:52.454Z,4.70
2022-10-04T02:28:53.784Z,4.35
2022-10-04T02:33:57.186Z,4.50
2022-10-04T02:39:07.693Z,4.10
2022-10-04T02:44:14.991Z,4.27
2022-10-04T02:49:19.316Z,4.32
2022-10-04T02:54:33.693Z,4.00
2022-10-04T02:59:39.270Z,4.50
2022-10-04T03:04:40.636Z,4.38
2022-10-04T03:09:42.123Z,4.37
2022-10-04T03:14:44.292Z,4.20
2022-10-04T03:19:47.962Z,3.75
2022-10-04T03:24:51.536Z,4.20
2022-10-04T03:29:58.262Z,3.92
2022-10-04T03:35:02.317Z,4.07
2022-10-04T03:40:04.531Z,3.83
2022-10-04T03:45:12.775Z,4.45
2022-10-04T03:50:25.252Z,4.17
2022-10-04T03:55:46.775Z,4.18
2022-10-04T04:01:06.649Z,4.20
2022-10-04T04:06:12.618Z,4.22
2022-10-04T04:11:21.481Z,4.35
2022-10-04T04:16:26.149Z,4.15
2022-10-04T04:21:28.114Z,4.38
2022-10-04T04:26:37.246Z,4.23
2022-10-04T04:31:52.823Z,4.60
2022-10-04T04:36:58.794Z,4.28
2022-10-04T04:42:21.639Z,4.53
2022-10-04T04:47:41.745Z,4.88
2022-10-04T04:52:48.237Z,4.10
2022-10-04T04:57:51.350Z,3.90
2022-10-04T05:02:58.614Z,3.92
2022-10-04T05:08:09.225Z,4.23
2022-10-04T05:13:11.025Z,4.03
2022-10-04T05:18:17.692Z,3.80
2022-10-04T05:23:19.023Z,4.15
2022-10-04T05:28:20.419Z,5.25
2022-10-04T05:33:30.641Z,6.28
2022-10-04T05:38:39.429Z,5.60
2022-10-04T05:43:50.135Z,4.77
2022-10-04T05:48:55.991Z,4.45
2022-10-04T05:53:59.754Z,3.55
2022-10-04T05:59:19.983Z,3.63
2022-10-04T06:04:27.587Z,4.30
2022-10-04T06:09:40.378Z,3.83
2022-10-04T06:14:54.845Z,4.70
2022-10-04T06:20:09.194Z,4.97
2022-10-04T06:25:18.595Z,4.95
2022-10-04T06:30:20.598Z,6.88
2022-10-04T06:35:40.505Z,4.57
2022-10-04T06:40:41.897Z,6.07
2022-10-04T06:46:06.621Z,5.70
2022-10-04T06:51:37.045Z,5.68
2022-10-04T06:56:38.361Z,5.38
2022-10-04T07:01:48.959Z,5.53
2022-10-04T07:07:24.899Z,5.22
2022-10-04T07:12:26.938Z,5.40
2022-10-04T07:17:36.666Z,5.50
2022-10-04T07:22:45.126Z,5.03
2022-10-04T07:28:10.798Z,4.77
2022-10-04T07:33:15.312Z,5.10
2022-10-04T07:38:20.284Z,4.03
2022-10-04T07:43:30.249Z,4.63
2022-10-04T07:48:31.648Z,3.88
2022-10-04T07:53:39.981Z,5.90
2022-10-04T07:58:50.346Z,9.18
2022-10-04T08:04:10.439Z,6.82
2022-10-04T08:09:11.727Z,6.30
2022-10-04T08:14:16.220Z,5.13
2022-10-04T08:19:40.877Z,5.67
2022-10-04T08:24:53.475Z,5.63
2022-10-04T08:29:55.126Z,5.32
2022-10-04T08:35:16.450Z,5.50
2022-10-04T08:40:35.660Z,5.30
2022-10-04T08:45:43.818Z,5.20
2022-10-04T08:50:45.258Z,4.43
2022-10-04T08:55:46.626Z,4.33
2022-10-04T09:01:06.518Z,3.92
2022-10-04T09:06:07.955Z,5.10
2022-10-04T09:11:15.448Z,3.70
2022-10-04T09:16:36.389Z,4.63
2022-10-04T09:21:43.565Z,4.55
2022-10-04T09:26:46.711Z,3.70
2022-10-04T09:31:48.448Z,3.43
2022-10-04T09:37:08.536Z,3.53
2022-10-04T09:42:21.303Z,3.50
2022-10-04T09:47:25.779Z,3.47
2022-10-04T09:52:27.163Z,4.70
2022-10-04T09:57:31.640Z,4.40
2022-10-04T10:02:48.309Z,3.60
2022-10-04T10:08:08.583Z,12.15
2022-10-04T10:13:40.527Z,3.58
2022-10-04T10:19:01.026Z,4.00
2022-10-04T10:24:21.528Z,3.87
2022-10-04T10:29:30.909Z,3.47
2022-10-04T10:34:52.176Z,3.78
2022-10-04T10:40:12.448Z,5.97
2022-10-04T10:45:29.959Z,3.60
2022-10-04T10:51:00.293Z,4.68
2022-10-04T10:56:20.545Z,3.77
2022-10-04T11:01:41.841Z,5.10
2022-10-04T11:07:02.872Z,5.05
2022-10-04T11:12:13.499Z,4.27
2022-10-04T11:17:25.603Z,3.30
2022-10-04T11:22:27.359Z,3.50
2022-10-04T11:27:49.403Z,6.03
2022-10-04T11:33:09.960Z,3.63
2022-10-04T11:38:20.066Z,4.78
2022-10-04T11:43:32.976Z,3.90
2022-10-04T11:48:35.132Z,2.80
2022-10-04T11:53:52.605Z,3.40
2022-10-04T11:59:00.122Z,3.80
2022-10-04T12:04:20.971Z,3.77
2022-10-04T12:09:25.195Z,2.93
2022-10-04T12:14:29.526Z,3.25
2022-10-04T12:19:30.853Z,3.47
2022-10-04T12:24:40.700Z,3.50
2022-10-04T12:30:00.361Z,4.18
2022-10-04T12:35:01.855Z,3.40
2022-10-04T12:40:09.509Z,3.83
2022-10-04T12:45:29.775Z,3.60
2022-10-04T12:50:53.605Z,3.60
2022-10-04T12:55:54.984Z,4.07
2022-10-04T13:01:02.421Z,3.83
2022-10-04T13:06:06.967Z,3.92
2022-10-04T13:11:26.915Z,4.00
2022-10-04T13:22:51.764Z,8.75
2022-10-04T13:28:12.982Z,6.38
2022-10-04T13:33:32.981Z,5.93
2022-10-04T13:38:46.484Z,3.08
2022-10-04T13:43:53.896Z,3.95
2022-10-04T13:48:58.306Z,4.17
2022-10-04T13:54:29.551Z,4.83
2022-10-04T13:59:35.523Z,4.10
2022-10-04T14:04:43.001Z,3.90
2022-10-04T14:10:04.613Z,2.77
2022-10-04T14:15:06.125Z,3.45
2022-10-04T14:20:25.936Z,3.40
2022-10-04T14:25:39.492Z,6.27
2022-10-04T14:30:55.548Z,3.95
2022-10-04T14:36:06.140Z,3.85
2022-10-04T14:41:24.925Z,3.30
2022-10-04T14:46:41.383Z,7.77
2022-10-04T14:51:43.096Z,4.85
2022-10-04T14:57:03.527Z,4.07
2022-10-04T15:02:19.871Z,4.77
2022-10-04T15:07:42.773Z,3.55
2022-10-04T15:13:12.637Z,3.75
2022-10-04T15:18:31.380Z,3.33
2022-10-04T15:23:34.899Z,4.00
2022-10-04T15:28:41.443Z,3.72
2022-10-04T15:33:47.021Z,3.90
2022-10-04T15:38:54.032Z,4.10
2022-10-04T15:43:55.476Z,4.38
2022-10-04T15:49:12.187Z,5.38
2022-10-04T15:54:31.850Z,4.40
2022-10-04T15:59:36.537Z,3.65
2022-10-04T16:04:38.076Z,4.53
2022-10-04T16:09:46.997Z,5.03
2022-10-04T16:14:56.600Z,5.80
2022-10-04T16:20:16.429Z,4.75
2022-10-04T16:25:23.987Z,3.63
2022-10-04T16:30:28.812Z,3.93
2022-10-04T16:35:33.273Z,4.60
2022-10-04T16:40:34.631Z,6.75
2022-10-04T16:45:54.839Z,4.73
2022-10-04T16:51:05.323Z,5.70
2022-10-04T16:56:18.048Z,4.80
2022-10-04T17:01:22.282Z,5.70
2022-10-04T17:06:31.168Z,5.15
2022-10-04T17:11:41.149Z,4.90
2022-10-04T17:16:50.314Z,5.63
2022-10-04T17:22:06.877Z,6.27
2022-10-04T17:27:08.192Z,8.90
2022-10-04T17:32:17.482Z,8.55
2022-10-04T17:37:26.661Z,9.63
2022-10-04T17:42:37.152Z,8.75
2022-10-04T17:48:20.517Z,8.17
2022-10-04T17:53:43.202Z,6.87
2022-10-04T17:59:12.314Z,7.18
2022-10-04T18:04:19.290Z,8.93
2022-10-04T18:09:25.572Z,13.50
2022-10-04T18:14:30.051Z,19.67
2022-10-04T18:19:38.376Z,7.13
2022-10-04T18:24:39.794Z,7.27
2022-10-04T18:29:42.233Z,8.45
2022-10-04T18:34:44.198Z,8.67
2022-10-04T18:39:53.252Z,7.37
2022-10-04T18:44:59.157Z,7.65
2022-10-04T18:50:04.294Z,7.17
2022-10-04T18:55:08.714Z,8.40
2022-10-04T19:00:30.417Z,6.95
2022-10-04T19:05:31.901Z,6.30
2022-10-04T19:10:35.589Z,7.20
2022-10-04T19:15:39.967Z,6.53
2022-10-04T19:20:47.956Z,6.00
2022-10-04T19:26:17.602Z,5.82
2022-10-04T19:31:13.979Z,7.00
2022-10-04T19:36:15.377Z,5.60
2022-10-04T19:41:38.159Z,5.50
2022-10-04T19:46:50.853Z,6.47
2022-10-04T19:51:55.474Z,6.70
2022-10-04T19:56:58.102Z,7.43
2022-10-04T20:01:59.477Z,6.80
2022-10-04T20:07:03.196Z,7.50
2022-10-04T20:12:05.310Z,8.05
2022-10-04T20:17:06.804Z,7.20
2022-10-04T20:22:08.184Z,8.30
2022-10-04T20:27:24.865Z,7.73
2022-10-04T20:32:26.257Z,7.07
2022-10-04T20:37:58.907Z,7.00
2022-10-04T20:43:15.318Z,6.23
2022-10-04T20:48:21.770Z,6.65
2022-10-04T20:53:27.710Z,6.63
2022-10-04T20:58:32.808Z,5.93
2022-10-04T21:03:34.308Z,6.38
2022-10-04T21:08:36.364Z,5.40
2022-10-04T21:13:58.257Z,5.78
2022-10-04T21:19:18.646Z,5.97
2022-10-04T21:24:27.153Z,6.20
2022-10-04T21:29:28.638Z,6.10
2022-10-04T21:34:51.875Z,6.10
2022-10-04T21:39:51.555Z,5.95
2022-10-04T21:44:52.905Z,6.90
2022-10-04T21:49:55.106Z,7.00
2022-10-04T21:54:56.537Z,6.47
2022-10-04T21:59:57.958Z,6.23
2022-10-04T22:04:59.289Z,5.20
2022-10-04T22:10:00.616Z,5.67
2022-10-04T22:15:02.064Z,5.78
2022-10-04T22:20:03.778Z,6.47
2022-10-04T22:25:10.525Z,5.67
2022-10-04T22:30:18.310Z,6.03
2022-10-04T22:35:20.098Z,5.47
2022-10-04T22:40:23.595Z,5.10
2022-10-04T22:45:27.041Z,5.40
2022-10-04T22:50:33.358Z,6.13
2022-10-04T22:55:35.552Z,5.53
2022-10-04T23:00:36.835Z,5.73
2022-10-04T23:05:38.298Z,5.47
2022-10-04T23:10:39.585Z,5.30
2022-10-04T23:15:40.912Z,5.10
2022-10-04T23:20:42.663Z,5.60
2022-10-04T23:25:46.955Z,5.33
2022-10-04T23:30:55.681Z,5.25
2022-10-04T23:35:57.563Z,4.82
2022-10-04T23:40:58.897Z,4.90
2022-10-04T23:46:00.481Z,4.93
2022-10-04T23:51:02.047Z,5.10
2022-10-04T23:56:06.182Z,5.05
